createdAt,value
2018-02-05T00:00:06.718Z,0.00
2018-02-05T00:01:06.573Z,0.00
2018-02-05T00:02:06.561Z,0.00
2018-02-05T00:03:06.403Z,0.00
2018-02-05T00:04:06.464Z,0.00
2018-02-05T00:05:06.244Z,0.00
2018-02-05T00:06:06.152Z,0.00
2018-02-05T00:07:06.060Z,0.00
2018-02-05T00:08:06.057Z,0.00
2018-02-05T00:09:06.057Z,0.00
2018-02-05T00:10:05.854Z,0.00
2018-02-05T00:11:05.734Z,0.00
2018-02-05T00:12:06.073Z,0.00
2018-02-05T00:13:05.572Z,0.00
2018-02-05T00:15:47.763Z,0.00
2018-02-05T00:16:47.666Z,0.00
2018-02-05T00:17:47.512Z,0.00
2018-02-05T00:18:47.517Z,0.00
2018-02-05T00:19:47.345Z,0.00
2018-02-05T00:20:47.390Z,0.00
2018-02-05T00:21:47.179Z,0.00
2018-02-05T00:22:47.203Z,0.00
2018-02-05T00:23:47.056Z,0.00
2018-02-05T00:24:47.034Z,0.00
2018-02-05T00:25:46.838Z,0.00
2018-02-05T00:26:46.811Z,0.00
2018-02-05T00:27:46.679Z,0.00
2018-02-05T00:28:46.925Z,0.00
2018-02-05T00:29:46.608Z,0.00
2018-02-05T00:30:46.578Z,0.00
2018-02-05T00:31:46.336Z,0.00
2018-02-05T00:32:46.338Z,0.00
2018-02-05T00:33:46.166Z,0.00
2018-02-05T00:34:46.149Z,0.00
2018-02-05T00:35:46.044Z,0.00
2018-02-05T00:36:45.978Z,0.00
2018-02-05T00:37:45.841Z,0.00
2018-02-05T00:38:45.873Z,0.00
2018-02-05T00:39:45.662Z,0.00
2018-02-05T00:40:45.718Z,0.00
2018-02-05T00:41:45.530Z,0.00
2018-02-05T00:42:45.488Z,0.00
2018-02-05T00:43:45.359Z,0.00
2018-02-05T00:44:45.253Z,0.00
2018-02-05T00:45:45.157Z,0.00
2018-02-05T00:46:45.141Z,0.00
2018-02-05T00:47:44.990Z,0.00
2018-02-05T00:48:45.007Z,0.00
2018-02-05T00:49:44.846Z,0.00
2018-02-05T00:50:44.829Z,0.00
2018-02-05T00:51:44.664Z,0.00
2018-02-05T00:52:44.644Z,0.00
2018-02-05T00:53:44.504Z,0.00
2018-02-05T00:54:44.548Z,0.00
2018-02-05T00:55:44.312Z,0.00
2018-02-05T00:56:44.386Z,0.00
2018-02-05T00:57:44.151Z,0.00
2018-02-05T00:58:44.157Z,0.00
2018-02-05T00:59:44.040Z,0.00
2018-02-05T01:00:43.960Z,0.00
2018-02-05T01:01:43.833Z,0.00
2018-02-05T01:02:43.812Z,0.00
2018-02-05T01:03:43.689Z,0.00
2018-02-05T01:04:43.682Z,0.00
2018-02-05T01:05:43.490Z,0.00
2018-02-05T01:06:43.487Z,0.00
2018-02-05T01:07:43.322Z,0.00
2018-02-05T01:08:43.301Z,0.00
2018-02-05T01:09:43.155Z,0.00
2018-02-05T01:10:43.103Z,0.00
2018-02-05T01:11:42.972Z,0.00
2018-02-05T01:12:42.958Z,0.00
2018-02-05T01:13:42.820Z,0.00
2018-02-05T01:14:42.859Z,0.00
2018-02-05T01:15:42.636Z,0.00
2018-02-05T01:16:42.638Z,0.00
2018-02-05T01:17:42.471Z,0.00
2018-02-05T01:18:42.482Z,0.00
2018-02-05T01:19:42.306Z,0.00
2018-02-05T01:20:42.253Z,0.00
2018-02-05T01:21:42.153Z,0.00
2018-02-05T01:22:42.203Z,0.00
2018-02-05T01:23:41.973Z,0.00
2018-02-05T01:24:41.979Z,0.00
2018-02-05T01:25:41.796Z,0.00
2018-02-05T01:26:41.787Z,0.00
2018-02-05T01:27:41.682Z,0.00
2018-02-05T01:28:41.586Z,0.00
2018-02-05T01:29:41.456Z,0.00
2018-02-05T01:30:41.502Z,0.00
2018-02-05T01:31:41.280Z,0.00
2018-02-05T01:32:41.334Z,0.00
2018-02-05T01:33:41.143Z,0.00
2018-02-05T01:34:41.162Z,0.00
2018-02-05T01:35:40.957Z,0.00
2018-02-05T01:36:41.027Z,0.00
2018-02-05T01:37:40.812Z,0.00
2018-02-05T01:38:40.773Z,0.00
2018-02-05T01:39:40.611Z,0.00
2018-02-05T01:40:40.638Z,0.00
2018-02-05T01:41:40.447Z,0.00
2018-02-05T01:42:40.454Z,0.00
2018-02-05T01:43:40.312Z,0.00
2018-02-05T01:44:40.255Z,0.00
2018-02-05T01:45:40.114Z,0.00
2018-02-05T01:46:40.066Z,0.00
2018-02-05T01:47:39.941Z,0.00
2018-02-05T01:48:39.910Z,0.00
2018-02-05T01:49:39.766Z,0.00
2018-02-05T01:50:39.824Z,0.00
2018-02-05T01:51:39.611Z,0.00
2018-02-05T01:52:39.600Z,0.00
2018-02-05T01:53:39.437Z,0.00
2018-02-05T01:54:39.434Z,0.00
2018-02-05T01:55:39.276Z,0.00
2018-02-05T01:56:39.246Z,0.00
2018-02-05T01:57:39.096Z,0.00
2018-02-05T01:58:39.130Z,0.00
2018-02-05T01:59:39.025Z,0.00
2018-02-05T02:00:38.930Z,0.00
2018-02-05T02:01:38.769Z,0.00
2018-02-05T02:02:38.737Z,0.00
2018-02-05T02:03:38.588Z,0.00
2018-02-05T02:04:38.587Z,0.00
2018-02-05T02:05:38.432Z,0.00
2018-02-05T02:06:38.454Z,0.00
2018-02-05T02:07:38.270Z,0.00
2018-02-05T02:08:38.284Z,0.00
2018-02-05T02:09:38.082Z,0.00
2018-02-05T02:10:39.137Z,0.00
2018-02-05T02:11:37.930Z,0.00
2018-02-05T02:12:37.882Z,0.00
2018-02-05T02:13:37.947Z,0.00
2018-02-05T02:14:37.734Z,0.00
2018-02-05T02:15:37.588Z,0.00
2018-02-05T02:16:37.605Z,0.00
2018-02-05T02:17:37.409Z,0.00
2018-02-05T02:18:37.498Z,0.00
2018-02-05T02:19:37.252Z,0.00
2018-02-05T02:20:37.218Z,0.00
2018-02-05T02:21:37.106Z,0.00
2018-02-05T02:22:37.215Z,0.00
2018-02-05T02:23:36.928Z,0.00
2018-02-05T02:24:36.963Z,0.00
2018-02-05T02:25:36.737Z,0.00
2018-02-05T02:26:36.783Z,0.00
2018-02-05T02:27:36.571Z,0.00
2018-02-05T02:28:36.598Z,0.00
2018-02-05T02:29:36.405Z,0.00
2018-02-05T02:30:36.403Z,0.00
2018-02-05T02:31:36.228Z,0.00
2018-02-05T02:32:36.279Z,0.00
2018-02-05T02:33:36.069Z,0.00
2018-02-05T02:34:36.085Z,0.00
2018-02-05T02:35:35.961Z,0.00
2018-02-05T02:36:35.890Z,0.00
2018-02-05T02:37:35.747Z,0.00
2018-02-05T02:38:35.710Z,0.00
2018-02-05T02:39:35.564Z,0.00
2018-02-05T02:40:35.615Z,0.00
2018-02-05T02:41:35.407Z,0.00
2018-02-05T02:42:35.453Z,0.00
2018-02-05T02:43:35.248Z,0.00
2018-02-05T02:44:35.268Z,0.00
2018-02-05T02:45:35.047Z,0.00
2018-02-05T02:46:35.031Z,0.00
2018-02-05T02:47:34.927Z,0.00
2018-02-05T02:48:34.846Z,0.00
2018-02-05T02:49:34.717Z,0.00
2018-02-05T02:50:34.751Z,0.00
2018-02-05T02:51:34.543Z,0.00
2018-02-05T02:52:34.610Z,0.00
2018-02-05T02:53:34.382Z,0.00
2018-02-05T02:54:34.367Z,0.00
2018-02-05T02:55:34.217Z,0.00
2018-02-05T02:56:34.175Z,0.00
2018-02-05T02:57:34.110Z,0.00
2018-02-05T02:58:34.092Z,0.00
2018-02-05T02:59:33.879Z,0.00
2018-02-05T03:00:33.896Z,0.00
2018-02-05T03:01:33.779Z,0.00
2018-02-05T03:02:33.712Z,0.00
2018-02-05T03:03:33.530Z,0.00
2018-02-05T03:04:33.520Z,0.00
2018-02-05T03:05:33.360Z,0.00
2018-02-05T03:06:33.418Z,0.00
2018-02-05T03:07:33.208Z,0.00
2018-02-05T03:08:33.237Z,0.00
2018-02-05T03:09:33.052Z,0.00
2018-02-05T03:10:33.042Z,0.00
2018-02-05T03:11:32.915Z,0.00
2018-02-05T03:12:32.846Z,0.00
2018-02-05T03:13:32.692Z,0.00
2018-02-05T03:14:32.664Z,0.00
2018-02-05T03:15:32.537Z,0.00
2018-02-05T03:16:32.574Z,0.00
2018-02-05T03:17:32.365Z,0.00
2018-02-05T03:18:32.378Z,0.00
2018-02-05T03:19:32.196Z,0.00
2018-02-05T03:20:32.295Z,0.00
2018-02-05T03:21:32.016Z,0.00
2018-02-05T03:22:31.993Z,0.00
2018-02-05T03:23:31.988Z,0.00
2018-02-05T03:24:31.804Z,0.00
2018-02-05T03:25:31.683Z,0.00
2018-02-05T03:26:31.675Z,0.00
2018-02-05T03:27:31.510Z,0.00
2018-02-05T03:28:31.559Z,0.00
2018-02-05T03:29:31.336Z,0.00
2018-02-05T03:30:31.335Z,0.00
2018-02-05T03:31:31.184Z,0.00
2018-02-05T03:32:31.168Z,0.00
2018-02-05T03:33:31.007Z,0.00
2018-02-05T03:34:31.045Z,0.00
2018-02-05T03:35:30.832Z,0.00
2018-02-05T03:36:30.891Z,0.00
2018-02-05T03:37:30.668Z,0.00
2018-02-05T03:38:30.664Z,0.00
2018-02-05T03:39:30.523Z,0.00
2018-02-05T03:40:30.476Z,0.00
2018-02-05T03:41:30.324Z,0.00
2018-02-05T03:42:30.315Z,0.00
2018-02-05T03:43:30.165Z,0.00
2018-02-05T03:44:30.231Z,0.00
2018-02-05T03:45:29.996Z,0.00
2018-02-05T03:46:30.005Z,0.00
2018-02-05T03:47:29.846Z,0.00
2018-02-05T03:48:29.820Z,0.00
2018-02-05T03:49:29.659Z,0.00
2018-02-05T03:50:29.627Z,0.00
2018-02-05T03:51:29.486Z,0.00
2018-02-05T03:52:29.572Z,0.00
2018-02-05T03:53:29.334Z,0.00
2018-02-05T03:54:29.662Z,0.00
2018-02-05T03:55:29.161Z,0.00
2018-02-05T03:56:29.567Z,0.00
2018-02-05T03:57:29.004Z,0.00
2018-02-05T03:58:28.950Z,0.00
2018-02-05T03:59:28.846Z,0.00
2018-02-05T04:00:28.861Z,0.00
2018-02-05T04:01:28.780Z,0.00
2018-02-05T04:02:28.684Z,0.00
2018-02-05T04:03:28.497Z,0.00
2018-02-05T04:04:28.490Z,0.00
2018-02-05T04:05:28.323Z,0.00
2018-02-05T04:06:28.323Z,0.00
2018-02-05T04:07:28.142Z,0.00
2018-02-05T04:08:28.095Z,0.00
2018-02-05T04:09:27.986Z,0.00
2018-02-05T04:10:28.125Z,0.00
2018-02-05T04:11:27.826Z,0.00
2018-02-05T04:12:27.816Z,0.00
2018-02-05T04:13:27.635Z,0.00
2018-02-05T04:14:27.629Z,0.00
2018-02-05T04:15:27.479Z,0.00
2018-02-05T04:16:27.470Z,0.00
2018-02-05T04:17:27.297Z,0.00
2018-02-05T04:18:27.345Z,0.00
2018-02-05T04:19:27.131Z,0.00
2018-02-05T04:20:27.149Z,0.00
2018-02-05T04:21:26.980Z,0.00
2018-02-05T04:22:26.964Z,0.00
2018-02-05T04:23:26.804Z,0.00
2018-02-05T04:24:26.782Z,0.00
2018-02-05T04:25:26.633Z,0.00
2018-02-05T04:26:26.718Z,0.00
2018-02-05T04:27:26.460Z,0.00
2018-02-05T04:28:26.481Z,0.00
2018-02-05T04:29:26.285Z,0.00
2018-02-05T04:30:26.298Z,0.00
2018-02-05T04:31:26.119Z,0.00
2018-02-05T04:32:26.130Z,0.00
2018-02-05T04:33:25.947Z,0.00
2018-02-05T04:34:25.909Z,0.00
2018-02-05T04:35:25.778Z,0.00
2018-02-05T04:36:25.820Z,0.00
2018-02-05T04:37:25.637Z,0.00
2018-02-05T04:38:25.630Z,0.00
2018-02-05T04:39:25.462Z,0.00
2018-02-05T04:40:25.433Z,0.00
2018-02-05T04:41:25.279Z,0.00
2018-02-05T04:42:25.286Z,0.00
2018-02-05T04:43:25.135Z,0.00
2018-02-05T04:44:25.162Z,0.00
2018-02-05T04:45:25.065Z,0.00
2018-02-05T04:46:24.967Z,0.00
2018-02-05T04:47:24.771Z,0.00
2018-02-05T04:48:24.815Z,0.00
2018-02-05T04:49:24.597Z,0.00
2018-02-05T04:50:24.587Z,0.00
2018-02-05T04:51:24.463Z,0.00
2018-02-05T04:52:24.397Z,0.00
2018-02-05T04:53:24.281Z,0.00
2018-02-05T04:54:24.210Z,0.00
2018-02-05T04:55:24.092Z,0.00
2018-02-05T04:56:24.021Z,0.00
2018-02-05T04:57:23.980Z,0.00
2018-02-05T04:58:23.956Z,0.00
2018-02-05T04:59:23.859Z,0.00
2018-02-05T05:00:23.736Z,0.00
2018-02-05T05:01:23.582Z,0.00
2018-02-05T05:02:23.538Z,0.00
2018-02-05T05:03:23.441Z,0.00
2018-02-05T05:04:23.462Z,0.00
2018-02-05T05:05:23.250Z,0.00
2018-02-05T05:06:23.257Z,0.00
2018-02-05T05:07:23.099Z,0.00
2018-02-05T05:08:23.102Z,0.00
2018-02-05T05:09:22.923Z,0.00
2018-02-05T05:10:22.847Z,0.00
2018-02-05T05:11:22.741Z,0.00
2018-02-05T05:12:22.785Z,0.00
2018-02-05T05:13:22.581Z,0.00
2018-02-05T05:14:22.635Z,0.00
2018-02-05T05:15:22.446Z,0.00
2018-02-05T05:16:22.405Z,0.00
2018-02-05T05:17:22.242Z,0.00
2018-02-05T05:18:22.206Z,0.00
2018-02-05T05:19:22.075Z,0.00
2018-02-05T05:20:22.021Z,0.00
2018-02-05T05:21:21.901Z,0.00
2018-02-05T05:22:21.932Z,0.00
2018-02-05T05:23:21.729Z,0.00
2018-02-05T05:24:21.774Z,0.00
2018-02-05T05:25:21.572Z,0.00
2018-02-05T05:26:21.540Z,0.00
2018-02-05T05:27:21.389Z,0.00
2018-02-05T05:28:21.354Z,0.00
2018-02-05T05:29:21.312Z,0.00
2018-02-05T05:30:21.293Z,0.00
2018-02-05T05:31:21.080Z,0.00
2018-02-05T05:32:21.070Z,0.00
2018-02-05T05:33:20.881Z,0.00
2018-02-05T05:34:20.909Z,0.00
2018-02-05T05:35:20.738Z,0.00
2018-02-05T05:36:20.691Z,0.00
2018-02-05T05:37:20.542Z,0.00
2018-02-05T05:38:20.530Z,0.00
2018-02-05T05:39:20.410Z,0.00
2018-02-05T05:40:20.402Z,0.00
2018-02-05T05:41:20.222Z,0.00
2018-02-05T05:42:20.226Z,0.00
2018-02-05T05:43:20.061Z,0.00
2018-02-05T05:44:20.030Z,0.00
2018-02-05T05:45:19.865Z,0.00
2018-02-05T05:46:19.809Z,0.00
2018-02-05T05:47:19.699Z,0.00
2018-02-05T05:48:19.740Z,0.00
2018-02-05T05:49:19.535Z,0.00
2018-02-05T05:50:19.552Z,0.00
2018-02-05T05:51:19.380Z,0.00
2018-02-05T05:52:19.459Z,0.00
2018-02-05T05:53:19.190Z,0.00
2018-02-05T05:54:19.177Z,0.00
2018-02-05T05:55:19.022Z,0.00
2018-02-05T05:56:19.005Z,0.00
2018-02-05T05:57:18.847Z,0.00
2018-02-05T05:58:18.884Z,0.00
2018-02-05T05:59:18.687Z,0.00
2018-02-05T06:00:18.715Z,0.00
2018-02-05T06:01:18.519Z,0.00
2018-02-05T06:02:18.530Z,0.00
2018-02-05T06:03:18.346Z,0.00
2018-02-05T06:04:18.311Z,0.00
2018-02-05T06:05:18.178Z,0.00
2018-02-05T06:06:19.125Z,0.00
2018-02-05T06:07:18.029Z,0.00
2018-02-05T06:08:17.969Z,0.00
2018-02-05T06:09:17.849Z,0.00
2018-02-05T06:10:17.769Z,0.00
2018-02-05T06:11:17.686Z,0.00
2018-02-05T06:12:17.593Z,0.00
2018-02-05T06:13:17.578Z,0.00
2018-02-05T06:14:17.456Z,0.00
2018-02-05T06:15:17.374Z,0.00
2018-02-05T06:16:17.264Z,0.00
2018-02-05T06:17:17.168Z,0.00
2018-02-05T06:18:17.112Z,0.00
2018-02-05T06:19:17.006Z,0.00
2018-02-05T06:20:16.915Z,0.00
2018-02-05T06:21:16.826Z,0.00
2018-02-05T06:22:16.808Z,0.00
2018-02-05T06:23:16.671Z,0.00
2018-02-05T06:24:16.605Z,0.00
2018-02-05T06:25:16.496Z,0.00
2018-02-05T06:26:16.425Z,0.00
2018-02-05T06:27:16.336Z,0.00
2018-02-05T06:28:16.244Z,0.00
2018-02-05T06:29:16.167Z,0.00
2018-02-05T06:30:16.089Z,0.00
2018-02-05T06:31:16.000Z,0.00
2018-02-05T06:32:15.899Z,0.00
2018-02-05T06:33:15.828Z,0.00
2018-02-05T06:34:15.752Z,4.00
2018-02-05T06:35:15.649Z,0.00
2018-02-05T06:36:16.280Z,0.00
2018-02-05T06:37:15.483Z,4.00
2018-02-05T06:38:15.413Z,0.00
2018-02-05T06:39:15.330Z,4.00
2018-02-05T06:40:15.256Z,4.00
2018-02-05T06:41:15.153Z,8.00
2018-02-05T06:42:15.091Z,8.00
2018-02-05T06:43:14.962Z,8.00
2018-02-05T06:44:14.925Z,8.00
2018-02-05T06:45:14.887Z,8.00
2018-02-05T06:46:14.721Z,12.00
2018-02-05T06:47:14.625Z,8.00
2018-02-05T06:48:14.559Z,12.00
2018-02-05T06:49:14.459Z,16.00
2018-02-05T06:50:14.412Z,16.00
2018-02-05T06:51:14.295Z,20.00
2018-02-05T06:52:14.226Z,24.00
2018-02-05T06:53:14.126Z,24.00
2018-02-05T06:54:14.057Z,28.00
2018-02-05T06:55:13.982Z,32.00
2018-02-05T06:56:13.917Z,36.00
2018-02-05T06:57:13.783Z,40.00
2018-02-05T06:58:13.716Z,44.00
2018-02-05T06:59:13.638Z,48.00
2018-02-05T07:00:13.560Z,56.00
2018-02-05T07:01:13.490Z,60.00
2018-02-05T07:02:13.397Z,68.00
2018-02-05T07:03:13.293Z,72.00
2018-02-05T07:04:13.214Z,84.00
2018-02-05T07:05:13.117Z,92.00
2018-02-05T07:06:13.061Z,100.00
2018-02-05T07:07:12.975Z,108.00
2018-02-05T07:09:55.245Z,140.00
2018-02-05T07:10:55.135Z,148.00
2018-02-05T07:11:55.094Z,156.00
2018-02-05T07:12:54.971Z,168.00
2018-02-05T07:13:54.868Z,180.00
2018-02-05T07:14:55.778Z,192.00
2018-02-05T07:15:54.705Z,212.00
2018-02-05T07:16:54.655Z,228.00
2018-02-05T07:17:54.553Z,248.00
2018-02-05T07:18:54.461Z,260.00
2018-02-05T07:19:54.372Z,284.00
2018-02-05T07:20:54.332Z,288.00
2018-02-05T07:21:54.209Z,304.00
2018-02-05T07:22:54.151Z,316.00
2018-02-05T07:23:54.030Z,336.00
2018-02-05T07:24:53.959Z,356.00
2018-02-05T07:25:53.860Z,384.00
2018-02-05T07:26:53.783Z,408.00
2018-02-05T07:27:53.694Z,436.00
2018-02-05T07:28:53.647Z,456.00
2018-02-05T07:29:53.523Z,488.00
2018-02-05T07:30:53.451Z,512.00
2018-02-05T07:31:53.364Z,544.00
2018-02-05T07:32:53.278Z,552.00
2018-02-05T07:33:53.206Z,576.00
2018-02-05T07:34:53.117Z,616.00
2018-02-05T07:35:53.021Z,652.00
2018-02-05T07:36:52.955Z,696.00
2018-02-05T07:37:52.896Z,752.00
2018-02-05T07:38:52.795Z,796.00
2018-02-05T07:39:52.692Z,824.00
2018-02-05T07:40:52.605Z,864.00
2018-02-05T07:41:52.514Z,904.00
2018-02-05T07:42:52.442Z,956.00
2018-02-05T07:43:52.365Z,996.00
2018-02-05T07:44:52.312Z,1040.00
2018-02-05T07:45:52.191Z,1076.00
2018-02-05T07:46:52.098Z,1084.00
2018-02-05T07:47:52.101Z,1116.00
2018-02-05T07:48:51.944Z,1144.00
2018-02-05T07:49:51.884Z,1180.00
2018-02-05T07:50:51.788Z,1192.00
2018-02-05T07:51:51.675Z,1236.00
2018-02-05T07:52:51.604Z,1256.00
2018-02-05T07:53:51.529Z,1268.00
2018-02-05T07:54:51.440Z,1332.00
2018-02-05T07:55:51.338Z,1340.00
2018-02-05T07:56:51.270Z,1376.00
2018-02-05T07:57:51.184Z,1400.00
2018-02-05T07:58:51.098Z,1436.00
2018-02-05T07:59:51.003Z,1476.00
2018-02-05T08:00:50.957Z,1520.00
2018-02-05T08:01:50.830Z,1556.00
2018-02-05T08:02:50.766Z,1608.00
2018-02-05T08:03:50.675Z,1664.00
2018-02-05T08:04:50.590Z,1768.00
2018-02-05T08:05:50.523Z,1744.00
2018-02-05T08:06:50.438Z,1828.00
2018-02-05T08:07:50.441Z,1912.00
2018-02-05T08:08:50.294Z,1952.00
2018-02-05T08:09:50.174Z,1952.00
2018-02-05T08:10:50.167Z,2076.00
2018-02-05T08:11:50.008Z,2160.00
2018-02-05T08:12:49.934Z,2272.00
2018-02-05T08:13:49.854Z,2432.00
2018-02-05T08:14:49.796Z,2444.00
2018-02-05T08:15:49.672Z,2520.00
2018-02-05T08:16:49.633Z,2556.00
2018-02-05T08:17:49.495Z,2528.00
2018-02-05T08:18:49.427Z,2568.00
2018-02-05T08:19:49.334Z,2560.00
2018-02-05T08:20:49.259Z,2476.00
2018-02-05T08:21:49.184Z,2468.00
2018-02-05T08:22:49.133Z,2360.00
2018-02-05T08:23:49.001Z,2296.00
2018-02-05T08:24:48.925Z,2340.00
2018-02-05T08:25:48.852Z,2288.00
2018-02-05T08:26:48.761Z,2280.00
2018-02-05T08:27:48.679Z,2312.00
2018-02-05T08:28:48.609Z,2264.00
2018-02-05T08:29:48.491Z,2312.00
2018-02-05T08:30:48.469Z,2308.00
2018-02-05T08:31:48.329Z,2252.00
2018-02-05T08:32:48.288Z,2180.00
2018-02-05T08:33:48.157Z,2152.00
2018-02-05T08:34:48.090Z,2128.00
2018-02-05T08:35:47.989Z,2092.00
2018-02-05T08:36:47.922Z,2076.00
2018-02-05T08:37:47.999Z,2052.00
2018-02-05T08:38:47.794Z,2100.00
2018-02-05T08:39:47.689Z,2084.00
2018-02-05T08:40:47.587Z,2120.00
2018-02-05T08:41:47.489Z,2124.00
2018-02-05T08:42:47.419Z,2208.00
2018-02-05T08:43:47.327Z,2192.00
2018-02-05T08:44:47.281Z,2276.00
2018-02-05T08:45:47.165Z,2380.00
2018-02-05T08:46:47.096Z,2556.00
2018-02-05T08:47:47.019Z,2664.00
2018-02-05T08:48:46.914Z,2824.00
2018-02-05T08:49:46.850Z,3092.00
2018-02-05T08:50:46.782Z,3548.00
2018-02-05T08:51:46.733Z,4180.00
2018-02-05T08:52:46.619Z,5356.00
2018-02-05T08:53:46.504Z,5844.00
2018-02-05T08:54:46.420Z,5976.00
2018-02-05T08:55:46.391Z,6152.00
2018-02-05T08:56:46.260Z,6224.00
2018-02-05T08:57:46.156Z,6256.00
2018-02-05T08:58:46.091Z,6336.00
2018-02-05T08:59:46.018Z,6444.00
2018-02-05T09:00:46.017Z,6380.00
2018-02-05T09:01:45.823Z,6100.00
2018-02-05T09:02:45.757Z,6528.00
2018-02-05T09:03:45.665Z,6496.00
2018-02-05T09:04:45.596Z,6716.00
2018-02-05T09:05:45.524Z,6552.00
2018-02-05T09:06:45.481Z,6380.00
2018-02-05T09:07:45.337Z,6608.00
2018-02-05T09:08:45.272Z,6616.00
2018-02-05T09:09:45.167Z,6696.00
2018-02-05T09:10:45.103Z,6720.00
2018-02-05T09:11:45.034Z,6956.00
2018-02-05T09:12:44.940Z,7000.00
2018-02-05T09:13:44.845Z,7036.00
2018-02-05T09:14:44.781Z,7140.00
2018-02-05T09:15:44.699Z,7344.00
2018-02-05T09:16:44.634Z,6904.00
2018-02-05T09:17:44.527Z,6964.00
2018-02-05T09:18:44.457Z,7400.00
2018-02-05T09:19:44.426Z,7568.00
2018-02-05T09:20:44.304Z,7620.00
2018-02-05T09:21:44.512Z,7408.00
2018-02-05T09:22:44.139Z,8068.00
2018-02-05T09:23:44.088Z,7700.00
2018-02-05T09:24:43.992Z,7816.00
2018-02-05T09:25:43.900Z,7836.00
2018-02-05T09:26:43.845Z,7996.00
2018-02-05T09:27:43.751Z,7972.00
2018-02-05T09:28:43.709Z,8156.00
2018-02-05T09:29:43.593Z,8108.00
2018-02-05T09:30:43.513Z,8236.00
2018-02-05T09:31:43.406Z,8352.00
2018-02-05T09:32:43.399Z,8304.00
2018-02-05T09:33:43.255Z,8084.00
2018-02-05T09:34:43.184Z,9776.00
2018-02-05T09:35:43.114Z,8180.00
2018-02-05T09:36:43.018Z,8264.00
2018-02-05T09:37:42.959Z,8556.00
2018-02-05T09:38:42.863Z,8636.00
2018-02-05T09:39:42.800Z,7480.00
2018-02-05T09:40:42.713Z,8692.00
2018-02-05T09:41:42.622Z,9464.00
2018-02-05T09:42:42.600Z,9636.00
2018-02-05T09:43:42.480Z,9708.00
2018-02-05T09:44:42.402Z,9748.00
2018-02-05T09:45:42.314Z,10012.00
2018-02-05T09:46:42.263Z,9880.00
2018-02-05T09:47:42.147Z,10228.00
2018-02-05T09:48:42.218Z,10496.00
2018-02-05T09:49:42.004Z,10864.00
2018-02-05T09:50:41.980Z,11188.00
2018-02-05T09:51:41.829Z,12480.00
2018-02-05T09:52:41.766Z,13088.00
2018-02-05T09:53:41.702Z,15040.00
2018-02-05T09:54:41.644Z,16736.00
2018-02-05T09:55:41.520Z,17888.00
2018-02-05T09:56:41.449Z,19520.00
2018-02-05T09:57:41.374Z,20608.00
2018-02-05T09:58:41.307Z,21376.00
2018-02-05T09:59:41.255Z,21344.00
2018-02-05T10:00:41.144Z,21024.00
2018-02-05T10:01:41.056Z,21216.00
2018-02-05T10:02:41.029Z,12224.00
2018-02-05T10:03:40.906Z,20096.00
2018-02-05T10:04:40.826Z,20800.00
2018-02-05T10:05:40.775Z,20416.00
2018-02-05T10:06:40.692Z,19584.00
2018-02-05T10:07:40.597Z,19744.00
2018-02-05T10:08:40.525Z,19136.00
2018-02-05T10:09:40.444Z,17728.00
2018-02-05T10:10:40.383Z,18176.00
2018-02-05T10:11:40.284Z,17952.00
2018-02-05T10:12:40.213Z,17504.00
2018-02-05T10:13:40.133Z,12260.00
2018-02-05T10:14:40.060Z,536.00
2018-02-05T10:15:39.994Z,16512.00
2018-02-05T10:16:39.920Z,16928.00
2018-02-05T10:17:39.824Z,24384.00
2018-02-05T10:18:39.758Z,16832.00
2018-02-05T10:19:39.662Z,16992.00
2018-02-05T10:20:39.737Z,16576.00
2018-02-05T10:21:39.501Z,16544.00
2018-02-05T10:22:39.485Z,16544.00
2018-02-05T10:23:39.365Z,16256.00
2018-02-05T10:24:39.290Z,16160.00
2018-02-05T10:25:39.197Z,15936.00
2018-02-05T10:26:39.128Z,16192.00
2018-02-05T10:27:39.072Z,14688.00
2018-02-05T10:28:38.998Z,15584.00
2018-02-05T10:29:39.062Z,16320.00
2018-02-05T10:30:38.818Z,16384.00
2018-02-05T10:31:38.758Z,16352.00
2018-02-05T10:32:38.686Z,16480.00
2018-02-05T10:33:38.585Z,16384.00
2018-02-05T10:34:38.519Z,16352.00
2018-02-05T10:35:38.427Z,16384.00
2018-02-05T10:36:38.399Z,14240.00
2018-02-05T10:37:38.285Z,16768.00
2018-02-05T10:38:38.231Z,16416.00
2018-02-05T10:39:38.186Z,17504.00
2018-02-05T10:40:38.049Z,16064.00
2018-02-05T10:41:37.988Z,22976.00
2018-02-05T10:42:37.914Z,17600.00
2018-02-05T10:43:37.831Z,18176.00
2018-02-05T10:44:37.744Z,27616.00
2018-02-05T10:45:37.666Z,18336.00
2018-02-05T10:46:37.599Z,18592.00
2018-02-05T10:47:37.492Z,18400.00
2018-02-05T10:48:37.447Z,17984.00
2018-02-05T10:49:37.345Z,17664.00
2018-02-05T10:50:37.275Z,17792.00
2018-02-05T10:51:37.198Z,17568.00
2018-02-05T10:52:37.140Z,16608.00
2018-02-05T10:53:37.077Z,17536.00
2018-02-05T10:54:37.002Z,15968.00
2018-02-05T10:55:36.877Z,17248.00
2018-02-05T10:56:36.813Z,17088.00
2018-02-05T10:57:36.723Z,16864.00
2018-02-05T10:58:36.685Z,17024.00
2018-02-05T10:59:36.571Z,16832.00
2018-02-05T11:00:36.508Z,16608.00
2018-02-05T11:01:36.420Z,16608.00
2018-02-05T11:02:36.363Z,16864.00
2018-02-05T11:03:36.285Z,16896.00
2018-02-05T11:04:36.208Z,16960.00
2018-02-05T11:05:36.117Z,14784.00
2018-02-05T11:06:36.043Z,17504.00
2018-02-05T11:07:35.967Z,17952.00
2018-02-05T11:08:35.933Z,19680.00
2018-02-05T11:09:35.817Z,20928.00
2018-02-05T11:10:35.783Z,20800.00
2018-02-05T11:11:35.649Z,21088.00
2018-02-05T11:12:35.596Z,21184.00
2018-02-05T11:13:35.494Z,20736.00
2018-02-05T11:14:35.450Z,17952.00
2018-02-05T11:15:35.344Z,20512.00
2018-02-05T11:16:35.272Z,20576.00
2018-02-05T11:17:35.186Z,20352.00
2018-02-05T11:18:35.124Z,19808.00
2018-02-05T11:19:35.138Z,18080.00
2018-02-05T11:20:34.975Z,17792.00
2018-02-05T11:21:34.879Z,16832.00
2018-02-05T11:22:34.816Z,17760.00
2018-02-05T11:23:34.726Z,16608.00
2018-02-05T11:24:34.711Z,16032.00
2018-02-05T11:25:34.593Z,16352.00
2018-02-05T11:26:34.544Z,16128.00
2018-02-05T11:27:34.430Z,15872.00
2018-02-05T11:28:34.384Z,15840.00
2018-02-05T11:29:34.260Z,15520.00
2018-02-05T11:30:34.228Z,15552.00
2018-02-05T11:31:34.109Z,15392.00
2018-02-05T11:32:34.054Z,15104.00
2018-02-05T11:33:33.955Z,14848.00
2018-02-05T11:34:33.887Z,14752.00
2018-02-05T11:35:33.834Z,14304.00
2018-02-05T11:36:33.741Z,14176.00
2018-02-05T11:37:33.658Z,13824.00
2018-02-05T11:38:33.586Z,13888.00
2018-02-05T11:39:33.489Z,13536.00
2018-02-05T11:40:33.464Z,13728.00
2018-02-05T11:41:33.338Z,13664.00
2018-02-05T11:42:33.296Z,13664.00
2018-02-05T11:43:33.180Z,13728.00
2018-02-05T11:44:33.141Z,13952.00
2018-02-05T11:45:33.041Z,14176.00
2018-02-05T11:46:32.986Z,15904.00
2018-02-05T11:47:32.884Z,38304.00
2018-02-05T11:48:32.805Z,66432.00
2018-02-05T11:49:32.722Z,62944.00
2018-02-05T11:50:32.683Z,48544.00
2018-02-05T11:51:32.566Z,43840.00
2018-02-05T11:52:32.515Z,40992.00
2018-02-05T11:53:32.431Z,38720.00
2018-02-05T11:54:32.347Z,36256.00
2018-02-05T11:55:32.277Z,36896.00
2018-02-05T11:56:32.208Z,36992.00
2018-02-05T11:57:32.133Z,36096.00
2018-02-05T11:58:32.056Z,35040.00
2018-02-05T11:59:31.946Z,43360.00
2018-02-05T12:00:31.876Z,31392.00
2018-02-05T12:01:31.792Z,31648.00
2018-02-05T12:02:32.344Z,10480.00
2018-02-05T12:03:31.647Z,11072.00
2018-02-05T12:04:31.589Z,36736.00
2018-02-05T12:05:31.489Z,11328.00
2018-02-05T12:06:31.429Z,12264.00
2018-02-05T12:07:31.374Z,34400.00
2018-02-05T12:08:31.275Z,33632.00
2018-02-05T12:09:31.206Z,33248.00
2018-02-05T12:10:31.114Z,28992.00
2018-02-05T12:11:31.030Z,5664.00
2018-02-05T12:12:30.947Z,16032.00
2018-02-05T12:13:30.886Z,32480.00
2018-02-05T12:14:30.810Z,33760.00
2018-02-05T12:15:30.726Z,31616.00
2018-02-05T12:16:30.651Z,32128.00
2018-02-05T12:17:30.573Z,32160.00
2018-02-05T12:18:30.525Z,32896.00
2018-02-05T12:19:30.415Z,32800.00
2018-02-05T12:20:30.343Z,31776.00
2018-02-05T12:21:30.242Z,29056.00
2018-02-05T12:22:30.215Z,32064.00
2018-02-05T12:23:30.106Z,32320.00
2018-02-05T12:24:30.058Z,0.00
2018-02-05T12:25:29.944Z,30752.00
2018-02-05T12:26:29.871Z,30816.00
2018-02-05T12:27:29.839Z,32672.00
2018-02-05T12:28:29.772Z,16416.00
2018-02-05T12:29:29.647Z,3832.00
2018-02-05T12:30:29.590Z,3180.00
2018-02-05T12:31:29.476Z,3140.00
2018-02-05T12:32:29.405Z,3124.00
2018-02-05T12:33:29.321Z,3040.00
2018-02-05T12:34:29.299Z,3056.00
2018-02-05T12:35:29.161Z,3044.00
2018-02-05T12:36:29.098Z,3016.00
2018-02-05T12:37:29.010Z,3004.00
2018-02-05T12:38:28.961Z,2940.00
2018-02-05T12:39:28.880Z,2912.00
2018-02-05T12:40:28.786Z,2884.00
2018-02-05T12:41:28.699Z,2784.00
2018-02-05T12:42:28.643Z,2768.00